Flight Track Log - Related Links

Times and Time Zones

All times are in EDT time to prevent confusion due to time zone crossing. See the EGF3681 flight status page for this flight to view local times or setup timezone preferences in your user account.

Time Position Orientation Groundspeed Altitude Reporting Facility
EDT Latitude Longitude Course Direction KTS MPH feet Rate Location/Type
Fri 11:42:08 PM 42.0167 -87.9333 95° East 170 196 1,900  Level Chicago TRACON
Fri 11:43:02 PM 42.0333 -88.0000 289° West 217 250 3,800 2,000 Climbing Chicago TRACON
Fri 11:44:00 PM 41.9667 -87.5360 90° East  Level FlightAware Approximate
Fri 11:44:41 PM 42.0775 -87.9086 57° Northeast 233 268 7,000  Level Chicago Center
Fri 11:45:00 PM 41.9549 -87.4158 98° East  Level FlightAware Approximate
Fri 11:45:42 PM 42.0664 -87.8131 99° East 256 295 8,900  Level Chicago Center
Fri 11:46:00 PM 41.9450 -87.2953 95° East  Level FlightAware Approximate
Fri 11:46:43 PM 42.0494 -87.7097 102° East 278 320 11,100  Level Chicago Center
Fri 11:47:00 PM 41.9363 -87.1746 95° East  Level FlightAware Approximate
Fri 11:47:43 PM 42.0306 -87.5978 103° East 300 345 12,100  Level Chicago Center
Fri 11:48:44 PM 41.9961 -87.4775 111° Southeast 346 398 13,200 1,131 Climbing Chicago Center
Fri 11:49:45 PM 41.9503 -87.3553 117° Southeast 373 429 14,400 1,438 Climbing Chicago Center
Fri 11:50:45 PM 41.9347 -87.1939 97° East 366 421 16,100 1,537 Climbing Chicago Center
Fri 11:51:46 PM 41.9183 -87.0589 99° East 367 422 17,500 1,279 Climbing Chicago Center
Fri 11:52:47 PM 41.8492 -86.9531 131° Southeast 375 432 18,700 1,279 Climbing Chicago Center
Fri 11:53:48 PM 41.7781 -86.8514 133° Southeast 375 432 20,100 1,140 Climbing Chicago Center
Fri 11:54:48 PM 41.7050 -86.7450 133° Southeast 385 443 21,000 446 Climbing Chicago Center
Fri 11:55:49 PM 41.6331 -86.6406 133° Southeast 407 468 21,000  Level Chicago Center
Fri 11:56:50 PM 41.5514 -86.5208 132° Southeast 433 498 21,000  Level Chicago Center
Fri 11:57:51 PM 41.4697 -86.4039 133° Southeast 434 499 21,000  Level Chicago Center
Fri 11:58:51 PM 41.3889 -86.2872 133° Southeast 432 497 21,000  Level Chicago Center
Fri 11:59:54 PM 41.2917 -86.1456 132° Southeast 436 502 21,000  Level Chicago Center
Sat 12:00:55 AM 41.2083 -86.0292 134° Southeast 437 503 21,000  Level Chicago Center
Sat 12:01:55 AM 41.1269 -85.9114 133° Southeast 436 502 21,000  Level Chicago Center
Sat 12:02:56 AM 41.0436 -85.7947 133° Southeast 439 505 21,000 -99 Level Chicago Center
Sat 12:03:56 AM 40.9619 -85.6769 133° Southeast 437 503 20,800 -347 Descending Chicago Center
Sat 12:04:57 AM 40.8800 -85.5642 134° Southeast 430 495 20,300 -443 Descending Chicago Center
Sat 12:05:58 AM 40.7989 -85.4489 133° Southeast 430 495 19,900 -446 Descending Chicago Center
Sat 12:06:58 AM 40.7169 -85.3342 133° Southeast 432 497 19,400 -645 Descending Chicago Center
Sat 12:07:59 AM 40.6397 -85.2264 133° Southeast 429 494 18,600 -821 Descending Chicago Center
Sat 12:08:55 AM 40.5597 -85.1147 133° Southeast 420 483 17,800 -1,172 Descending Indianapolis Center
Sat 12:09:26 AM 40.5108 -85.0481 134° Southeast 415 478 16,900 -1,475 Descending Indianapolis Center
Sat 12:09:56 AM 40.4808 -85.0075 134° Southeast 412 474 16,300 -1,377 Descending Indianapolis Center
Sat 12:10:27 AM 40.4322 -84.9392 133° Southeast 402 463 15,500 -1,516 Descending Indianapolis Center
Sat 12:11:27 AM 40.3497 -84.8489 140° Southeast 392 451 14,000 -1,400 Descending Indianapolis Center
Sat 12:11:57 AM 40.3150 -84.8125 141° Southeast 391 450 13,400 -1,475 Descending Indianapolis Center
Sat 12:12:28 AM 40.2647 -84.7614 142° Southeast 389 448 12,500 -1,451 Descending Indianapolis Center
Sat 12:13:28 AM 40.1831 -84.6803 143° Southeast 370 426 11,200 -1,200 Descending Indianapolis Center
Sat 12:13:58 AM 40.1522 -84.6469 140° Southeast 360 414 10,700 -1,582 Descending Indianapolis Center
Sat 12:14:59 AM 40.0906 -84.5817 141° Southeast 300 345 8,800 -2,083 Descending Indianapolis Center
Sat 12:15:59 AM 40.0297 -84.5206 142° Southeast 280 322 6,500 -1,835 Descending Indianapolis Center
Sat 12:17:00 AM 39.9733 -84.4617 141° Southeast 266 306 5,100 -1,190 Descending Indianapolis Center
Sat 12:18:00 AM 39.9189 -84.4081 143° Southeast 252 290 4,100 -1,190 Descending Indianapolis Center
Sat 12:19:01 AM 39.8708 -84.3589 142° Southeast 233 268 2,700 -942 Descending Indianapolis Center
Sat 12:20:01 AM 39.8636 -84.3144 102° East 166 191 2,200 -595 Descending Indianapolis Center
Sat 12:21:02 AM 39.8808 -84.2719 62° Northeast 141 162 1,500 -443 Descending Indianapolis Center
Sat 12:22:03 AM 39.9028 -84.2311 55° Northeast 135 155 1,300 -197 Descending Indianapolis Center

Login

Don't have an account? Register now (free) for customized features, flight alerts, and more!